sensor_id;sensor_type;location;lat;lon;timestamp;P1;durP1;ratioP1;P2;durP2;ratioP2
11111;SDS011;5609;49.466;8.468;2022-11-15T00:02:20;5.57;;;4.30;;
11111;SDS011;5609;49.466;8.468;2022-11-15T00:04:48;6.87;;;4.70;;
11111;SDS011;5609;49.466;8.468;2022-11-15T00:07:15;5.00;;;4.27;;
11111;SDS011;5609;49.466;8.468;2022-11-15T00:09:41;5.00;;;4.53;;
11111;SDS011;5609;49.466;8.468;2022-11-15T00:12:08;6.07;;;4.47;;
11111;SDS011;5609;49.466;8.468;2022-11-15T00:14:35;7.37;;;4.63;;
11111;SDS011;5609;49.466;8.468;2022-11-15T00:17:02;5.57;;;4.43;;
11111;SDS011;5609;49.466;8.468;2022-11-15T00:19:28;5.50;;;4.40;;
11111;SDS011;5609;49.466;8.468;2022-11-15T00:21:56;5.73;;;4.60;;
11111;SDS011;5609;49.466;8.468;2022-11-15T00:24:23;5.00;;;4.50;;
11111;SDS011;5609;49.466;8.468;2022-11-15T00:26:50;5.20;;;4.03;;
11111;SDS011;5609;49.466;8.468;2022-11-15T00:29:17;4.97;;;4.20;;
11111;SDS011;5609;49.466;8.468;2022-11-15T00:31:43;5.17;;;4.10;;
11111;SDS011;5609;49.466;8.468;2022-11-15T00:34:10;5.97;;;4.70;;
11111;SDS011;5609;49.466;8.468;2022-11-15T00:36:37;5.60;;;4.30;;
11111;SDS011;5609;49.466;8.468;2022-11-15T00:39:05;5.37;;;3.93;;
11111;SDS011;5609;49.466;8.468;2022-11-15T00:41:32;4.60;;;4.20;;
11111;SDS011;5609;49.466;8.468;2022-11-15T00:43:59;4.77;;;4.20;;
11111;SDS011;5609;49.466;8.468;2022-11-15T00:46:25;5.20;;;4.20;;
11111;SDS011;5609;49.466;8.468;2022-11-15T00:48:52;4.67;;;4.27;;
11111;SDS011;5609;49.466;8.468;2022-11-15T00:51:19;4.80;;;4.30;;
11111;SDS011;5609;49.466;8.468;2022-11-15T00:53:46;5.03;;;3.83;;
11111;SDS011;5609;49.466;8.468;2022-11-15T00:56:14;5.30;;;4.27;;
11111;SDS011;5609;49.466;8.468;2022-11-15T00:58:40;5.00;;;4.03;;
11111;SDS011;5609;49.466;8.468;2022-11-15T01:01:08;4.50;;;4.00;;
11111;SDS011;5609;49.466;8.468;2022-11-15T01:03:36;6.53;;;4.27;;
11111;SDS011;5609;49.466;8.468;2022-11-15T01:06:03;4.97;;;4.00;;
11111;SDS011;5609;49.466;8.468;2022-11-15T01:08:30;5.33;;;3.93;;
11111;SDS011;5609;49.466;8.468;2022-11-15T01:11:00;4.77;;;3.63;;
11111;SDS011;5609;49.466;8.468;2022-11-15T01:13:30;5.00;;;4.00;;
11111;SDS011;5609;49.466;8.468;2022-11-15T01:15:57;4.57;;;4.17;;
11111;SDS011;5609;49.466;8.468;2022-11-15T01:18:25;4.27;;;3.87;;
11111;SDS011;5609;49.466;8.468;2022-11-15T01:20:51;5.97;;;4.10;;
11111;SDS011;5609;49.466;8.468;2022-11-15T01:23:18;5.23;;;3.80;;
11111;SDS011;5609;49.466;8.468;2022-11-15T01:25:45;6.10;;;4.50;;
11111;SDS011;5609;49.466;8.468;2022-11-15T01:28:12;4.60;;;4.10;;
11111;SDS011;5609;49.466;8.468;2022-11-15T01:30:40;4.50;;;3.93;;
11111;SDS011;5609;49.466;8.468;2022-11-15T01:33:06;4.30;;;3.77;;
11111;SDS011;5609;49.466;8.468;2022-11-15T01:35:33;6.00;;;4.27;;
11111;SDS011;5609;49.466;8.468;2022-11-15T01:38:04;4.07;;;3.67;;
11111;SDS011;5609;49.466;8.468;2022-11-15T01:40:31;4.13;;;3.73;;
11111;SDS011;5609;49.466;8.468;2022-11-15T01:42:58;4.87;;;3.70;;
11111;SDS011;5609;49.466;8.468;2022-11-15T01:45:24;4.63;;;3.67;;
11111;SDS011;5609;49.466;8.468;2022-11-15T01:47:53;5.77;;;4.13;;
11111;SDS011;5609;49.466;8.468;2022-11-15T01:50:22;4.10;;;3.80;;
11111;SDS011;5609;49.466;8.468;2022-11-15T01:52:52;5.67;;;4.00;;
11111;SDS011;5609;49.466;8.468;2022-11-15T01:55:20;3.63;;;3.33;;
11111;SDS011;5609;49.466;8.468;2022-11-15T01:57:49;4.40;;;3.57;;
11111;SDS011;5609;49.466;8.468;2022-11-15T02:00:17;3.80;;;3.33;;
11111;SDS011;5609;49.466;8.468;2022-11-15T02:02:44;4.23;;;3.70;;
11111;SDS011;5609;49.466;8.468;2022-11-15T02:05:12;4.20;;;3.60;;
11111;SDS011;5609;49.466;8.468;2022-11-15T02:07:39;4.27;;;3.60;;
11111;SDS011;5609;49.466;8.468;2022-11-15T02:10:07;4.93;;;3.97;;
11111;SDS011;5609;49.466;8.468;2022-11-15T02:12:35;4.60;;;4.00;;
11111;SDS011;5609;49.466;8.468;2022-11-15T02:15:02;4.30;;;3.70;;
11111;SDS011;5609;49.466;8.468;2022-11-15T02:17:34;4.10;;;3.70;;
11111;SDS011;5609;49.466;8.468;2022-11-15T02:20:24;5.87;;;3.73;;
11111;SDS011;5609;49.466;8.468;2022-11-15T02:23:20;5.63;;;4.00;;
11111;SDS011;5609;49.466;8.468;2022-11-15T02:26:08;4.30;;;3.90;;
11111;SDS011;5609;49.466;8.468;2022-11-15T02:28:53;4.47;;;4.07;;
11111;SDS011;5609;49.466;8.468;2022-11-15T02:31:27;4.10;;;3.70;;
11111;SDS011;5609;49.466;8.468;2022-11-15T02:33:59;4.60;;;3.80;;
11111;SDS011;5609;49.466;8.468;2022-11-15T02:36:34;4.77;;;4.07;;
11111;SDS011;5609;49.466;8.468;2022-11-15T02:39:08;6.83;;;4.07;;
11111;SDS011;5609;49.466;8.468;2022-11-15T02:41:41;4.63;;;3.63;;
11111;SDS011;5609;49.466;8.468;2022-11-15T02:44:13;4.17;;;3.67;;
11111;SDS011;5609;49.466;8.468;2022-11-15T02:46:45;4.07;;;3.63;;
11111;SDS011;5609;49.466;8.468;2022-11-15T02:49:34;4.10;;;3.53;;
11111;SDS011;5609;49.466;8.468;2022-11-15T02:52:01;4.77;;;3.57;;
11111;SDS011;5609;49.466;8.468;2022-11-15T02:54:29;6.17;;;3.60;;
11111;SDS011;5609;49.466;8.468;2022-11-15T02:56:58;4.23;;;3.67;;
11111;SDS011;5609;49.466;8.468;2022-11-15T03:02:44;4.67;;;3.70;;
11111;SDS011;5609;49.466;8.468;2022-11-15T03:05:24;3.80;;;3.50;;
11111;SDS011;5609;49.466;8.468;2022-11-15T03:08:01;4.47;;;3.17;;
11111;SDS011;5609;49.466;8.468;2022-11-15T03:10:36;3.73;;;3.30;;
11111;SDS011;5609;49.466;8.468;2022-11-15T03:13:13;6.50;;;4.10;;
11111;SDS011;5609;49.466;8.468;2022-11-15T03:15:51;4.50;;;3.47;;
11111;SDS011;5609;49.466;8.468;2022-11-15T03:18:28;3.90;;;3.50;;
11111;SDS011;5609;49.466;8.468;2022-11-15T03:20:58;5.47;;;3.27;;
11111;SDS011;5609;49.466;8.468;2022-11-15T03:23:28;4.90;;;3.40;;
11111;SDS011;5609;49.466;8.468;2022-11-15T03:25:57;3.93;;;3.50;;
11111;SDS011;5609;49.466;8.468;2022-11-15T03:28:27;5.27;;;3.40;;
11111;SDS011;5609;49.466;8.468;2022-11-15T03:30:58;4.77;;;3.57;;
11111;SDS011;5609;49.466;8.468;2022-11-15T03:33:49;3.80;;;3.40;;
11111;SDS011;5609;49.466;8.468;2022-11-15T03:36:19;4.07;;;3.23;;
11111;SDS011;5609;49.466;8.468;2022-11-15T03:38:48;4.10;;;3.43;;
11111;SDS011;5609;49.466;8.468;2022-11-15T03:41:17;3.93;;;3.20;;
11111;SDS011;5609;49.466;8.468;2022-11-15T03:43:49;4.03;;;3.30;;
11111;SDS011;5609;49.466;8.468;2022-11-15T03:46:23;4.33;;;3.47;;
11111;SDS011;5609;49.466;8.468;2022-11-15T03:48:56;4.50;;;3.57;;
11111;SDS011;5609;49.466;8.468;2022-11-15T03:51:29;4.63;;;3.40;;
11111;SDS011;5609;49.466;8.468;2022-11-15T03:53:56;3.70;;;3.30;;
11111;SDS011;5609;49.466;8.468;2022-11-15T03:56:23;4.07;;;3.63;;
11111;SDS011;5609;49.466;8.468;2022-11-15T03:58:50;3.53;;;3.23;;
11111;SDS011;5609;49.466;8.468;2022-11-15T04:01:16;5.03;;;3.40;;
11111;SDS011;5609;49.466;8.468;2022-11-15T04:03:43;4.60;;;3.30;;
11111;SDS011;5609;49.466;8.468;2022-11-15T04:06:11;4.00;;;3.50;;
11111;SDS011;5609;49.466;8.468;2022-11-15T04:08:38;5.20;;;3.60;;
11111;SDS011;5609;49.466;8.468;2022-11-15T04:11:04;6.37;;;3.53;;
11111;SDS011;5609;49.466;8.468;2022-11-15T04:13:31;3.63;;;3.30;;
11111;SDS011;5609;49.466;8.468;2022-11-15T04:15:58;4.73;;;3.03;;
11111;SDS011;5609;49.466;8.468;2022-11-15T04:18:25;3.47;;;3.17;;
11111;SDS011;5609;49.466;8.468;2022-11-15T04:20:51;3.63;;;3.30;;
11111;SDS011;5609;49.466;8.468;2022-11-15T04:23:37;3.80;;;3.37;;
11111;SDS011;5609;49.466;8.468;2022-11-15T04:26:18;4.27;;;3.70;;
11111;SDS011;5609;49.466;8.468;2022-11-15T04:28:47;4.83;;;3.13;;
11111;SDS011;5609;49.466;8.468;2022-11-15T04:31:28;4.13;;;3.20;;
11111;SDS011;5609;49.466;8.468;2022-11-15T04:33:54;3.93;;;3.53;;
11111;SDS011;5609;49.466;8.468;2022-11-15T04:36:21;5.87;;;3.67;;
11111;SDS011;5609;49.466;8.468;2022-11-15T04:39:07;4.00;;;3.23;;
11111;SDS011;5609;49.466;8.468;2022-11-15T04:41:34;3.70;;;3.40;;
11111;SDS011;5609;49.466;8.468;2022-11-15T04:44:01;4.37;;;3.00;;
11111;SDS011;5609;49.466;8.468;2022-11-15T04:46:28;3.90;;;3.20;;
11111;SDS011;5609;49.466;8.468;2022-11-15T04:48:55;4.27;;;3.33;;
11111;SDS011;5609;49.466;8.468;2022-11-15T04:51:21;4.13;;;3.30;;
11111;SDS011;5609;49.466;8.468;2022-11-15T04:53:48;5.27;;;3.30;;
11111;SDS011;5609;49.466;8.468;2022-11-15T04:56:16;3.40;;;3.10;;
11111;SDS011;5609;49.466;8.468;2022-11-15T04:58:43;4.03;;;3.30;;
11111;SDS011;5609;49.466;8.468;2022-11-15T05:01:10;4.20;;;3.40;;
11111;SDS011;5609;49.466;8.468;2022-11-15T05:03:39;3.80;;;3.30;;
11111;SDS011;5609;49.466;8.468;2022-11-15T05:06:23;5.27;;;3.33;;
11111;SDS011;5609;49.466;8.468;2022-11-15T05:08:50;4.53;;;3.40;;
11111;SDS011;5609;49.466;8.468;2022-11-15T05:11:18;3.87;;;3.10;;
11111;SDS011;5609;49.466;8.468;2022-11-15T05:13:45;5.07;;;3.40;;
11111;SDS011;5609;49.466;8.468;2022-11-15T05:16:12;4.43;;;3.67;;
11111;SDS011;5609;49.466;8.468;2022-11-15T05:18:39;4.50;;;3.47;;
11111;SDS011;5609;49.466;8.468;2022-11-15T05:21:06;3.70;;;3.40;;
11111;SDS011;5609;49.466;8.468;2022-11-15T05:23:34;4.20;;;3.33;;
11111;SDS011;5609;49.466;8.468;2022-11-15T05:26:02;4.13;;;3.20;;
11111;SDS011;5609;49.466;8.468;2022-11-15T05:28:32;4.10;;;3.30;;
11111;SDS011;5609;49.466;8.468;2022-11-15T05:31:01;3.63;;;3.33;;
11111;SDS011;5609;49.466;8.468;2022-11-15T05:33:29;4.00;;;3.60;;
11111;SDS011;5609;49.466;8.468;2022-11-15T05:35:57;4.17;;;3.43;;
11111;SDS011;5609;49.466;8.468;2022-11-15T05:38:30;4.67;;;3.37;;
11111;SDS011;5609;49.466;8.468;2022-11-15T05:40:57;5.10;;;3.60;;
11111;SDS011;5609;49.466;8.468;2022-11-15T05:43:25;4.20;;;3.80;;
11111;SDS011;5609;49.466;8.468;2022-11-15T05:45:54;5.83;;;4.70;;
11111;SDS011;5609;49.466;8.468;2022-11-15T05:48:21;5.87;;;4.60;;
11111;SDS011;5609;49.466;8.468;2022-11-15T05:50:47;11.07;;;6.70;;
11111;SDS011;5609;49.466;8.468;2022-11-15T05:53:15;10.83;;;6.57;;
11111;SDS011;5609;49.466;8.468;2022-11-15T05:55:43;6.70;;;5.00;;
11111;SDS011;5609;49.466;8.468;2022-11-15T05:58:12;6.27;;;4.90;;
11111;SDS011;5609;49.466;8.468;2022-11-15T06:00:38;4.33;;;3.93;;
11111;SDS011;5609;49.466;8.468;2022-11-15T06:03:07;5.77;;;3.83;;
11111;SDS011;5609;49.466;8.468;2022-11-15T06:05:33;4.77;;;3.83;;
11111;SDS011;5609;49.466;8.468;2022-11-15T06:08:00;5.67;;;4.20;;
11111;SDS011;5609;49.466;8.468;2022-11-15T06:10:27;7.37;;;4.67;;
11111;SDS011;5609;49.466;8.468;2022-11-15T06:12:57;7.53;;;5.20;;
11111;SDS011;5609;49.466;8.468;2022-11-15T06:15:27;6.83;;;4.37;;
11111;SDS011;5609;49.466;8.468;2022-11-15T06:17:55;6.17;;;3.93;;
11111;SDS011;5609;49.466;8.468;2022-11-15T06:20:24;4.80;;;4.13;;
11111;SDS011;5609;49.466;8.468;2022-11-15T06:22:53;4.70;;;3.60;;
11111;SDS011;5609;49.466;8.468;2022-11-15T06:25:22;4.87;;;4.00;;
11111;SDS011;5609;49.466;8.468;2022-11-15T06:27:50;5.13;;;3.70;;
11111;SDS011;5609;49.466;8.468;2022-11-15T06:30:18;4.43;;;4.00;;
11111;SDS011;5609;49.466;8.468;2022-11-15T06:32:44;4.87;;;3.97;;
11111;SDS011;5609;49.466;8.468;2022-11-15T06:35:11;6.27;;;3.63;;
11111;SDS011;5609;49.466;8.468;2022-11-15T06:37:40;3.97;;;3.60;;
11111;SDS011;5609;49.466;8.468;2022-11-15T06:40:07;4.40;;;3.57;;
11111;SDS011;5609;49.466;8.468;2022-11-15T06:42:35;5.20;;;3.60;;
11111;SDS011;5609;49.466;8.468;2022-11-15T06:45:02;5.43;;;3.00;;
11111;SDS011;5609;49.466;8.468;2022-11-15T06:47:29;9.93;;;3.40;;
11111;SDS011;5609;49.466;8.468;2022-11-15T06:49:56;3.90;;;3.30;;
11111;SDS011;5609;49.466;8.468;2022-11-15T06:52:23;6.00;;;3.23;;
11111;SDS011;5609;49.466;8.468;2022-11-15T06:54:51;5.87;;;2.70;;
11111;SDS011;5609;49.466;8.468;2022-11-15T06:57:17;6.47;;;3.00;;
11111;SDS011;5609;49.466;8.468;2022-11-15T06:59:44;5.97;;;2.90;;
11111;SDS011;5609;49.466;8.468;2022-11-15T07:02:11;3.70;;;3.07;;
11111;SDS011;5609;49.466;8.468;2022-11-15T07:04:39;4.77;;;2.83;;
11111;SDS011;5609;49.466;8.468;2022-11-15T07:07:06;5.83;;;3.00;;
11111;SDS011;5609;49.466;8.468;2022-11-15T07:09:32;8.53;;;3.07;;
11111;SDS011;5609;49.466;8.468;2022-11-15T07:12:00;7.17;;;3.17;;
11111;SDS011;5609;49.466;8.468;2022-11-15T07:14:27;6.00;;;2.63;;
11111;SDS011;5609;49.466;8.468;2022-11-15T07:16:54;6.57;;;2.90;;
11111;SDS011;5609;49.466;8.468;2022-11-15T07:19:20;6.57;;;2.90;;
11111;SDS011;5609;49.466;8.468;2022-11-15T07:21:47;4.83;;;2.70;;
11111;SDS011;5609;49.466;8.468;2022-11-15T07:24:14;6.20;;;3.20;;
11111;SDS011;5609;49.466;8.468;2022-11-15T07:26:41;5.80;;;3.13;;
11111;SDS011;5609;49.466;8.468;2022-11-15T07:29:09;17.53;;;3.67;;
11111;SDS011;5609;49.466;8.468;2022-11-15T07:31:35;7.13;;;3.03;;
11111;SDS011;5609;49.466;8.468;2022-11-15T07:34:03;4.57;;;2.83;;
11111;SDS011;5609;49.466;8.468;2022-11-15T07:36:29;6.53;;;3.17;;
11111;SDS011;5609;49.466;8.468;2022-11-15T07:38:56;4.90;;;3.23;;
11111;SDS011;5609;49.466;8.468;2022-11-15T07:41:23;6.87;;;2.97;;
11111;SDS011;5609;49.466;8.468;2022-11-15T07:43:50;8.53;;;3.30;;
11111;SDS011;5609;49.466;8.468;2022-11-15T07:46:18;7.43;;;3.03;;
11111;SDS011;5609;49.466;8.468;2022-11-15T07:48:45;6.23;;;3.30;;
11111;SDS011;5609;49.466;8.468;2022-11-15T07:51:12;5.27;;;3.00;;
11111;SDS011;5609;49.466;8.468;2022-11-15T07:53:40;7.70;;;3.00;;
11111;SDS011;5609;49.466;8.468;2022-11-15T07:56:07;5.67;;;3.07;;
11111;SDS011;5609;49.466;8.468;2022-11-15T07:58:34;4.90;;;2.87;;
11111;SDS011;5609;49.466;8.468;2022-11-15T08:01:02;5.10;;;2.90;;
11111;SDS011;5609;49.466;8.468;2022-11-15T08:03:31;4.60;;;3.23;;
11111;SDS011;5609;49.466;8.468;2022-11-15T08:05:58;5.70;;;3.00;;
11111;SDS011;5609;49.466;8.468;2022-11-15T08:08:25;4.60;;;3.07;;
11111;SDS011;5609;49.466;8.468;2022-11-15T08:10:52;4.20;;;3.00;;
11111;SDS011;5609;49.466;8.468;2022-11-15T08:13:19;6.50;;;2.70;;
11111;SDS011;5609;49.466;8.468;2022-11-15T08:15:46;6.00;;;3.20;;
11111;SDS011;5609;49.466;8.468;2022-11-15T08:18:13;3.60;;;3.10;;
11111;SDS011;5609;49.466;8.468;2022-11-15T08:20:43;5.40;;;3.00;;
11111;SDS011;5609;49.466;8.468;2022-11-15T08:23:10;5.90;;;3.20;;
11111;SDS011;5609;49.466;8.468;2022-11-15T08:25:37;6.20;;;2.77;;
11111;SDS011;5609;49.466;8.468;2022-11-15T08:28:05;4.93;;;3.10;;
11111;SDS011;5609;49.466;8.468;2022-11-15T08:30:34;5.53;;;3.00;;
11111;SDS011;5609;49.466;8.468;2022-11-15T08:33:03;7.70;;;2.87;;
11111;SDS011;5609;49.466;8.468;2022-11-15T08:35:30;4.23;;;2.80;;
11111;SDS011;5609;49.466;8.468;2022-11-15T08:37:58;4.80;;;3.30;;
11111;SDS011;5609;49.466;8.468;2022-11-15T08:40:25;5.03;;;3.30;;
11111;SDS011;5609;49.466;8.468;2022-11-15T08:42:52;5.27;;;3.27;;
11111;SDS011;5609;49.466;8.468;2022-11-15T08:45:19;5.37;;;3.07;;
11111;SDS011;5609;49.466;8.468;2022-11-15T08:47:46;7.17;;;3.50;;
11111;SDS011;5609;49.466;8.468;2022-11-15T08:50:13;10.53;;;3.87;;
11111;SDS011;5609;49.466;8.468;2022-11-15T08:52:40;7.00;;;3.77;;
11111;SDS011;5609;49.466;8.468;2022-11-15T08:55:08;4.80;;;3.43;;
11111;SDS011;5609;49.466;8.468;2022-11-15T08:57:35;7.83;;;3.73;;
11111;SDS011;5609;49.466;8.468;2022-11-15T09:00:02;5.37;;;3.90;;
11111;SDS011;5609;49.466;8.468;2022-11-15T09:02:29;6.70;;;3.27;;
11111;SDS011;5609;49.466;8.468;2022-11-15T09:04:56;7.37;;;3.33;;
11111;SDS011;5609;49.466;8.468;2022-11-15T09:07:23;6.07;;;3.70;;
11111;SDS011;5609;49.466;8.468;2022-11-15T09:09:50;6.43;;;3.80;;
11111;SDS011;5609;49.466;8.468;2022-11-15T09:12:18;7.43;;;3.40;;
11111;SDS011;5609;49.466;8.468;2022-11-15T09:14:45;4.40;;;3.40;;
11111;SDS011;5609;49.466;8.468;2022-11-15T09:17:11;5.73;;;3.60;;
11111;SDS011;5609;49.466;8.468;2022-11-15T09:19:38;8.03;;;3.73;;
11111;SDS011;5609;49.466;8.468;2022-11-15T09:22:05;4.77;;;3.60;;
11111;SDS011;5609;49.466;8.468;2022-11-15T09:24:32;5.57;;;3.67;;
11111;SDS011;5609;49.466;8.468;2022-11-15T09:26:59;6.13;;;3.60;;
11111;SDS011;5609;49.466;8.468;2022-11-15T09:29:27;4.30;;;3.30;;
11111;SDS011;5609;49.466;8.468;2022-11-15T09:31:54;4.20;;;3.40;;
11111;SDS011;5609;49.466;8.468;2022-11-15T09:34:21;5.53;;;3.50;;
11111;SDS011;5609;49.466;8.468;2022-11-15T09:36:48;6.47;;;3.30;;
11111;SDS011;5609;49.466;8.468;2022-11-15T09:39:15;4.17;;;3.20;;
11111;SDS011;5609;49.466;8.468;2022-11-15T09:41:48;5.43;;;3.30;;
11111;SDS011;5609;49.466;8.468;2022-11-15T09:44:45;3.57;;;3.10;;
11111;SDS011;5609;49.466;8.468;2022-11-15T09:47:36;6.00;;;3.07;;
11111;SDS011;5609;49.466;8.468;2022-11-15T09:50:12;4.63;;;3.17;;
11111;SDS011;5609;49.466;8.468;2022-11-15T09:52:43;4.23;;;3.17;;
11111;SDS011;5609;49.466;8.468;2022-11-15T09:55:11;4.80;;;3.40;;
11111;SDS011;5609;49.466;8.468;2022-11-15T09:57:47;4.40;;;3.60;;
11111;SDS011;5609;49.466;8.468;2022-11-15T10:00:22;4.33;;;3.40;;
11111;SDS011;5609;49.466;8.468;2022-11-15T10:03:02;4.33;;;2.63;;
11111;SDS011;5609;49.466;8.468;2022-11-15T10:05:37;4.57;;;3.10;;
11111;SDS011;5609;49.466;8.468;2022-11-15T10:08:10;4.03;;;3.17;;
11111;SDS011;5609;49.466;8.468;2022-11-15T10:10:47;4.30;;;2.90;;
11111;SDS011;5609;49.466;8.468;2022-11-15T10:13:16;3.87;;;3.13;;
11111;SDS011;5609;49.466;8.468;2022-11-15T10:15:49;4.00;;;3.20;;
11111;SDS011;5609;49.466;8.468;2022-11-15T10:18:19;4.37;;;3.30;;
11111;SDS011;5609;49.466;8.468;2022-11-15T10:20:56;2.90;;;2.70;;
11111;SDS011;5609;49.466;8.468;2022-11-15T10:23:25;4.07;;;3.30;;
11111;SDS011;5609;49.466;8.468;2022-11-15T10:25:54;6.03;;;3.03;;
11111;SDS011;5609;49.466;8.468;2022-11-15T10:28:25;5.37;;;2.90;;
11111;SDS011;5609;49.466;8.468;2022-11-15T10:30:55;4.20;;;3.27;;
11111;SDS011;5609;49.466;8.468;2022-11-15T10:33:25;3.97;;;2.93;;
11111;SDS011;5609;49.466;8.468;2022-11-15T10:36:15;3.47;;;3.17;;
11111;SDS011;5609;49.466;8.468;2022-11-15T10:38:57;4.53;;;3.53;;
11111;SDS011;5609;49.466;8.468;2022-11-15T10:41:32;3.37;;;3.00;;
11111;SDS011;5609;49.466;8.468;2022-11-15T10:44:07;3.90;;;2.97;;
11111;SDS011;5609;49.466;8.468;2022-11-15T10:46:46;4.40;;;3.30;;
11111;SDS011;5609;49.466;8.468;2022-11-15T10:49:16;5.13;;;4.57;;
11111;SDS011;5609;49.466;8.468;2022-11-15T10:51:44;4.13;;;3.37;;
11111;SDS011;5609;49.466;8.468;2022-11-15T10:54:13;4.20;;;2.90;;
11111;SDS011;5609;49.466;8.468;2022-11-15T10:56:48;3.60;;;3.03;;
11111;SDS011;5609;49.466;8.468;2022-11-15T10:59:18;4.30;;;3.20;;
11111;SDS011;5609;49.466;8.468;2022-11-15T11:01:52;3.37;;;2.80;;
11111;SDS011;5609;49.466;8.468;2022-11-15T11:04:18;3.73;;;3.20;;
11111;SDS011;5609;49.466;8.468;2022-11-15T11:06:46;3.40;;;3.10;;
11111;SDS011;5609;49.466;8.468;2022-11-15T11:09:21;3.90;;;3.20;;
11111;SDS011;5609;49.466;8.468;2022-11-15T11:11:53;3.60;;;3.30;;
11111;SDS011;5609;49.466;8.468;2022-11-15T11:14:20;3.77;;;3.40;;
11111;SDS011;5609;49.466;8.468;2022-11-15T11:16:52;3.50;;;3.20;;
11111;SDS011;5609;49.466;8.468;2022-11-15T11:19:33;4.30;;;3.20;;
11111;SDS011;5609;49.466;8.468;2022-11-15T11:22:12;3.70;;;3.23;;
11111;SDS011;5609;49.466;8.468;2022-11-15T11:24:47;3.73;;;3.00;;
11111;SDS011;5609;49.466;8.468;2022-11-15T11:27:26;3.57;;;3.23;;
11111;SDS011;5609;49.466;8.468;2022-11-15T11:30:03;4.20;;;3.27;;
11111;SDS011;5609;49.466;8.468;2022-11-15T11:32:43;4.60;;;3.30;;
11111;SDS011;5609;49.466;8.468;2022-11-15T11:35:22;3.40;;;3.10;;
11111;SDS011;5609;49.466;8.468;2022-11-15T11:37:54;3.70;;;3.10;;
11111;SDS011;5609;49.466;8.468;2022-11-15T11:40:27;4.37;;;2.80;;
11111;SDS011;5609;49.466;8.468;2022-11-15T11:42:58;3.80;;;2.60;;
11111;SDS011;5609;49.466;8.468;2022-11-15T11:45:41;3.00;;;2.70;;
11111;SDS011;5609;49.466;8.468;2022-11-15T11:48:31;3.13;;;2.57;;
11111;SDS011;5609;49.466;8.468;2022-11-15T11:51:09;4.50;;;2.50;;
11111;SDS011;5609;49.466;8.468;2022-11-15T11:53:41;3.20;;;2.60;;
11111;SDS011;5609;49.466;8.468;2022-11-15T11:56:16;2.60;;;2.37;;
11111;SDS011;5609;49.466;8.468;2022-11-15T11:58:48;2.40;;;2.20;;
11111;SDS011;5609;49.466;8.468;2022-11-15T12:01:20;2.53;;;2.20;;
11111;SDS011;5609;49.466;8.468;2022-11-15T12:03:51;3.10;;;2.80;;
11111;SDS011;5609;49.466;8.468;2022-11-15T12:06:24;4.37;;;2.40;;
11111;SDS011;5609;49.466;8.468;2022-11-15T12:08:57;2.90;;;2.50;;
11111;SDS011;5609;49.466;8.468;2022-11-15T12:11:28;2.70;;;2.20;;
11111;SDS011;5609;49.466;8.468;2022-11-15T12:13:59;3.17;;;2.23;;
11111;SDS011;5609;49.466;8.468;2022-11-15T12:16:30;3.17;;;2.40;;
11111;SDS011;5609;49.466;8.468;2022-11-15T12:19:00;2.40;;;2.20;;
11111;SDS011;5609;49.466;8.468;2022-11-15T12:21:36;2.37;;;1.87;;
11111;SDS011;5609;49.466;8.468;2022-11-15T12:24:11;2.30;;;2.10;;
11111;SDS011;5609;49.466;8.468;2022-11-15T12:26:42;2.47;;;2.00;;
11111;SDS011;5609;49.466;8.468;2022-11-15T12:29:15;1.97;;;1.87;;
11111;SDS011;5609;49.466;8.468;2022-11-15T12:31:47;3.43;;;2.33;;
11111;SDS011;5609;49.466;8.468;2022-11-15T12:34:33;2.30;;;1.87;;
11111;SDS011;5609;49.466;8.468;2022-11-15T12:42:59;3.10;;;1.90;;
11111;SDS011;5609;49.466;8.468;2022-11-15T12:45:56;3.10;;;1.80;;
11111;SDS011;5609;49.466;8.468;2022-11-15T12:48:46;2.93;;;2.07;;
11111;SDS011;5609;49.466;8.468;2022-11-15T12:51:17;3.80;;;2.47;;
11111;SDS011;5609;49.466;8.468;2022-11-15T12:53:46;2.53;;;2.33;;
11111;SDS011;5609;49.466;8.468;2022-11-15T12:56:22;2.27;;;2.07;;
11111;SDS011;5609;49.466;8.468;2022-11-15T12:58:51;2.33;;;1.90;;
11111;SDS011;5609;49.466;8.468;2022-11-15T13:04:27;1.90;;;1.80;;
11111;SDS011;5609;49.466;8.468;2022-11-15T13:06:58;3.33;;;1.90;;
11111;SDS011;5609;49.466;8.468;2022-11-15T13:18:26;3.10;;;2.20;;
11111;SDS011;5609;49.466;8.468;2022-11-15T13:21:04;2.37;;;2.17;;
11111;SDS011;5609;49.466;8.468;2022-11-15T13:24:03;4.30;;;2.80;;
11111;SDS011;5609;49.466;8.468;2022-11-15T13:26:31;2.57;;;2.30;;
11111;SDS011;5609;49.466;8.468;2022-11-15T13:28:57;3.07;;;2.30;;
11111;SDS011;5609;49.466;8.468;2022-11-15T13:31:35;3.37;;;2.17;;
11111;SDS011;5609;49.466;8.468;2022-11-15T13:34:14;2.73;;;2.00;;
11111;SDS011;5609;49.466;8.468;2022-11-15T13:36:46;2.93;;;2.20;;
11111;SDS011;5609;49.466;8.468;2022-11-15T13:39:23;2.90;;;2.50;;
11111;SDS011;5609;49.466;8.468;2022-11-15T13:41:53;2.43;;;2.00;;
11111;SDS011;5609;49.466;8.468;2022-11-15T13:44:20;2.53;;;2.30;;
11111;SDS011;5609;49.466;8.468;2022-11-15T13:46:48;3.77;;;2.27;;
11111;SDS011;5609;49.466;8.468;2022-11-15T13:49:28;2.20;;;2.00;;
11111;SDS011;5609;49.466;8.468;2022-11-15T13:51:56;3.20;;;2.40;;
11111;SDS011;5609;49.466;8.468;2022-11-15T13:54:26;3.57;;;2.33;;
11111;SDS011;5609;49.466;8.468;2022-11-15T13:56:56;3.30;;;2.30;;
11111;SDS011;5609;49.466;8.468;2022-11-15T13:59:28;3.30;;;2.10;;
11111;SDS011;5609;49.466;8.468;2022-11-15T14:01:57;2.37;;;2.13;;
11111;SDS011;5609;49.466;8.468;2022-11-15T14:04:29;2.83;;;2.10;;
11111;SDS011;5609;49.466;8.468;2022-11-15T14:06:58;3.47;;;2.20;;
11111;SDS011;5609;49.466;8.468;2022-11-15T14:09:32;3.37;;;2.17;;
11111;SDS011;5609;49.466;8.468;2022-11-15T14:12:01;3.13;;;1.97;;
11111;SDS011;5609;49.466;8.468;2022-11-15T14:14:44;2.70;;;2.23;;
11111;SDS011;5609;49.466;8.468;2022-11-15T14:17:18;2.90;;;2.10;;
11111;SDS011;5609;49.466;8.468;2022-11-15T14:19:49;3.23;;;2.30;;
11111;SDS011;5609;49.466;8.468;2022-11-15T14:22:18;3.23;;;2.20;;
11111;SDS011;5609;49.466;8.468;2022-11-15T14:25:04;3.10;;;2.00;;
11111;SDS011;5609;49.466;8.468;2022-11-15T14:27:34;3.93;;;2.13;;
11111;SDS011;5609;49.466;8.468;2022-11-15T14:30:01;2.47;;;1.97;;
11111;SDS011;5609;49.466;8.468;2022-11-15T14:32:29;4.00;;;2.33;;
11111;SDS011;5609;49.466;8.468;2022-11-15T14:35:11;2.50;;;2.30;;
11111;SDS011;5609;49.466;8.468;2022-11-15T14:37:40;2.50;;;2.30;;
11111;SDS011;5609;49.466;8.468;2022-11-15T14:40:12;2.87;;;2.10;;
11111;SDS011;5609;49.466;8.468;2022-11-15T14:42:40;2.47;;;2.27;;
11111;SDS011;5609;49.466;8.468;2022-11-15T14:45:09;2.10;;;1.90;;
11111;SDS011;5609;49.466;8.468;2022-11-15T14:47:39;3.13;;;2.30;;
11111;SDS011;5609;49.466;8.468;2022-11-15T14:50:06;2.10;;;1.90;;
11111;SDS011;5609;49.466;8.468;2022-11-15T14:52:37;3.30;;;2.10;;
11111;SDS011;5609;49.466;8.468;2022-11-15T14:55:10;2.20;;;2.00;;
11111;SDS011;5609;49.466;8.468;2022-11-15T14:57:42;2.80;;;1.87;;
11111;SDS011;5609;49.466;8.468;2022-11-15T15:00:09;2.83;;;2.40;;
11111;SDS011;5609;49.466;8.468;2022-11-15T15:02:36;2.30;;;2.10;;
11111;SDS011;5609;49.466;8.468;2022-11-15T15:05:09;2.60;;;2.33;;
11111;SDS011;5609;49.466;8.468;2022-11-15T15:07:40;4.07;;;2.20;;
11111;SDS011;5609;49.466;8.468;2022-11-15T15:10:08;3.13;;;2.33;;
11111;SDS011;5609;49.466;8.468;2022-11-15T15:12:36;6.60;;;3.03;;
11111;SDS011;5609;49.466;8.468;2022-11-15T15:15:04;5.90;;;2.73;;
11111;SDS011;5609;49.466;8.468;2022-11-15T15:17:31;2.97;;;2.27;;
11111;SDS011;5609;49.466;8.468;2022-11-15T15:19:58;6.13;;;3.10;;
11111;SDS011;5609;49.466;8.468;2022-11-15T15:22:25;4.33;;;2.57;;
11111;SDS011;5609;49.466;8.468;2022-11-15T15:24:55;2.47;;;2.00;;
11111;SDS011;5609;49.466;8.468;2022-11-15T15:27:23;3.03;;;2.70;;
11111;SDS011;5609;49.466;8.468;2022-11-15T15:29:50;4.43;;;3.10;;
11111;SDS011;5609;49.466;8.468;2022-11-15T15:32:16;2.77;;;2.30;;
11111;SDS011;5609;49.466;8.468;2022-11-15T15:34:43;4.80;;;2.50;;
11111;SDS011;5609;49.466;8.468;2022-11-15T15:37:19;4.30;;;3.00;;
11111;SDS011;5609;49.466;8.468;2022-11-15T15:39:50;2.70;;;2.20;;
11111;SDS011;5609;49.466;8.468;2022-11-15T15:42:17;2.53;;;2.33;;